Hoorn, Netherlands
Current Conditions -  °F | °C
As of 12:55 AM on Wednesday 26 Nov 2014 (Local Time) from EHKD Reporting Station
Haze Haze  
Wind Chill: 36°   Ceiling: 800
Heat Index: 43°   Visibility: 3mi
Dew Point: 41°   Wind: 14mph
Humidity: 93%   Direction: 100°E
Pressure: 30.12"   Gusts: NA
Location:  52.63°N, 5.07°E
Report Text: EHKD 252355Z AUTO 10012KT 5000 BR SCT007 OVC008 06/05 Q1020 GRN
Loading
Personal Weather Stations






























Interactive Weather Map New forecast layout! Learn more

10-Day Weather Forecast

Advertisements
Track Severe Weather on mobile